33D00
43.21.63N 005.51.13W
IN73BI aprs.fi
zuletzt gehoert:
2021-11-30T17:02:03Z
zuerst gehoert:
2020-11-07T13:42:10Z

APRS Oviedo [IN73BI], 0 Stunde(n), 33D00 [18:32:08, 0s].
33D00 43.21.63N 005.51.13WIN73BI 0.472km 351°N17:02:03Z33-D-00 Protección Civil REMER / Delegación del Gobierno en Asturias
EA1YR 43.22.09N 005.51.86WIN73BI 1.711km 321°NW17:02:31ZMMDVM DVS 434.3500/434.3500 CC1
EA1L 43.20.37N 005.51.13WIN73BI 1.851km 182°S17:30:16Zea1l@ure.es V=13.6V,T=??.?C
Wind 039°/000kn, Böen bis 000kn, Temp 12.78c, Regen 0.0mm, letzte 24h 0.5mm, seit 0h 0.5mm, Baro 1023.4h, Hum: 79%(2EA1L-13)
LEHU 43.22.63N 005.49.57WIN73CJ 3.075km 41°NE17:30:04ZHelipuerto del HUCA: LEAS 301630Z 00000KT 9999 FEW052 13/07 Q1025 NOSIG=
ED1ZAU 43.23.04N 005.52.75WIN73BJ 3.823km 324°NW17:02:43ZRD625 438.5000/430.9000 CC1
EA1HWX 43.19.29N 005.50.96WIN73BH 3.872km 178°S17:31:05ZDMO - UHF 439.7250/431.0000 CC11
EC1AE 43.19.66N 005.53.05WIN73BH 4.141km 220°SW16:36:18Z`_%(3EC1AE-9)
EB1CAM 43.18.02N 005.53.08WIN73BH 6.788km 204°SSW16:56:53ZEB1CAM por ahi(3EB1CAM-9)
EA1ABW 43.24.77N 005.47.77WIN73CJ 7.711km 35°NE17:31:02ZMMDVM MMDVM HS Hat 439.8250/439.8250 CC1
LEMR 43.25.83N 005.49.60WIN73CK 8.483km 13°NNE17:30:06ZAerodromo de la Morgal: LEAS 301630Z 00000KT 9999 FEW052 13/07 Q1025 NOSIG=
LEGM 43.26.15N 005.49.84WIN73CK 9.016km 11°N17:30:04ZHelipuerto de La Morgal: LEAS 301630Z 00000KT 9999 FEW052 13/07 Q1025 NOSIG=
EA1IMW 43.14.36N 005.46.93WIN73CF 14.156km 157°SSE17:31:24ZGRUPO RADIO GALENA (GRG) 433.4500/433.4500 CC1
ED1ZAY 43.29.47N 005.56.54WIN73AL 16.722km 334°NNW17:02:45ZRD625 438.3000/430.7000 CC1
EB1BHC 43.23.62N 006.03.56WIN63XJ 17.335km 284°WNW17:08:32Z`73 de EB1BHC- Cangas del Narcea, Asturias._"(3EB1BHC-9)
EA1JBL 43.12.28N 005.47.42WIN73CE 17.544km 164°SSE17:02:16ZMMDVM DVMega 435.3000/435.3000 CC1
EB1DGC 43.12.60N 005.45.59WIN73CF 17.865km 156°SSE17:30:49ZMMDVM MMDVM HS Hat 433.4500/433.4500 CC1
EA1HWA 43.12.00N 005.47.40WIN73CE 18.072km 164°SSE17:02:05ZMMDVM MMDVM HS Hat 433.4500/433.4500 CC1
ED1ZAS 43.27.52N 005.40.17WIN73DL 18.579km 52°NE17:02:45ZRD985 438.2250/430.6250 CC1
ED1ZAE 43.27.99N 005.40.54WIN73DL 18.733km 49°NE17:11:06Z2m Voice 145.5875 -0.600 Mhz(3ED1ZAE-C)
WIDE3-3 ESAS3-3 IN73DL WWW.EA1URG.ORG(2ED1ZAE-3)
EA1AHA 43.32.74N 005.54.36WIN73BN 21.514km 348°NNW17:01:06ZWind 248°/004kn, Böen bis 005kn, Temp 13.89c, Regen 0.0mm, letzte 24h 0.0mm, seit 0h 0.0mm, Baro 1026.7h, Hum: 62%(3EA1AHA-13)
MMDVM MMDVM HS Hat 432.0000/432.0000 CC1(2EA1AHA)
EA1RCG 43.09.45N 005.49.78WIN73CD 22.152km 175°S17:31:08ZGRUPO RADIO GALENA (GRG) 433.4500/433.4500 CC1
EA1AQK 43.16.49N 005.35.99WIN73EG 22.247km 114°ESE17:30:22ZMMDVM MMDVM HS Hat 439.8500/439.8500 CC1
EB1TK 43.32.22N 005.42.32WIN73DM 23.306km 30°NNE17:25:23ZWind 274°/001kn, Böen bis 002kn, Temp 11.67c, Regen 0.0mm, letzte 24h 1.8mm, seit 0h 1.8mm, Baro 1027.8h, Hum: 80%(3EB1TK-13)
EA1FFA 43.31.53N 005.40.64WIN73DM 23.490km 37°NE17:02:07ZMMDVM MMDVM HS Hat 438.8000/438.8000 CC1
EA1DZR 43.31.48N 005.40.00WIN73EM 23.928km 38°NE17:31:21ZMMDVM DVS 434.3500/434.3500 CC1
EB1AD 43.32.43N 005.41.29WIN73DM 24.362km 33°NNE16:33:16ZCarlos(3EB1AD-9)
LEEL 43.32.98N 005.41.71WIN73DN 24.912km 30°NNE17:30:06ZHelipuerto de El Musel: LEAS 301630Z 00000KT 9999 FEW052 13/07 Q1025 NOSIG=
EB1GEM 43.30.00N 005.36.07WIN73EM 25.763km 52°NE17:28:27ZWX3in1Plus2.0 U=13.3V,T=??.?C/??.?F(3EB1GEM-3)
ED1ZAD 43.07.90N 005.38.52WIN73ED 30.160km 146°SE17:21:17ZED1ZAD-3 APRS Digi/Igate(3ED1ZAD-3)
EA1HJA 43.28.10N 005.30.45WIN73FL 30.432km 66°ENE17:27:08Z IN73FL WX3IN1+ 2.0 - V=14.0V,TX TEMP=44.2C
EA1HJA@URE.ES(2EA1HJA-2)
EA1FHR 43.28.72N 005.26.41WIN73GL 35.868km 68°ENE17:31:35ZMMDVM MMDVM HS Hat 439.1500/439.1500 CC1
EA1JAY 43.29.33N 005.26.78WIN73GL 35.874km 66°ENE17:30:08Z434.525MHz Nodo TETRA DMO(3EA1JAY-4)
EA1JAY(2EA1JAY-2)
EA1HWD 43.28.96N 005.26.30WIN73GL 36.187km 67°ENE17:31:47Z144.575FM Local frecuency VHF. 434.2500/434.2500 CC1
EC1KV 43.34.01N 006.16.01WIN63UN 40.893km 305°NW17:25:27Z VOLT.=14.5 V - TEMP.=??.? C(3EC1KV-1)
LETN 43.20.05N 006.22.69WIN63TI 42.682km 267°W17:30:06ZAerodromo de La Curiscada (Tineo): LEAS 301630Z 00000KT 9999 FEW052 13/07 Q1025 NOSIG=

aprs.pl 5.0.011w DL3EL © 2006-2021 [1163605]